In Rescue
 
Open Full Screen Window  High Contrast Mode
March 19, 2019 6:45 PM EDT
Weather Information
Wind Direction
  ---
Wind Speed
  00 kt (0 mph)
Wind Gust
  00 kt (0 mph)
Altimeter
30.36 in
Visibility
10 SM
Temperature
08° C
46° F
Dewpoint
-10° C
14° F
Humidity
27%
1hr Rain Fall
00.00 in.
24hr Rain Fall
00.00 in.
Sky Condition
Clear
VFR

METAR KUKT 192245Z AUTO 00000KT 10SM CLR 08/M10 A3036 RMK A01

FAA Disclaimer: The data displayed is for advisory purposes only and is not to be used for flight planning or operations.